This is the latest recevied weather packets stored in our database for station/object DM1AS-13. If no packets are shown the sender has not sent any weather packets the latest 10 day(s).
| Time | Temp. | Humidity | Pressure | Rain* | Wind** | Luminosity | Snow |
|---|---|---|---|---|---|---|---|
| 1777589896 | 11.67° C | 67% | 1031 hPa | 0 mm | - | - | - |
| 1777587496 | 12.22° C | 65% | 1031 hPa | 0 mm | - | - | - |
| 1777584496 | 12.22° C | 64% | 1031.1 hPa | 0 mm | - | - | - |
| 1777581496 | 13.33° C | 61% | 1030.9 hPa | 0 mm | - | - | - |
| 1777571296 | 18.89° C | 43% | 1030.2 hPa | 0 mm | - | - | - |
| 1777570096 | 20° C | 38% | 1030.3 hPa | 0 mm | - | - | - |
| 1777566498 | 21.11° C | 38% | 1030.4 hPa | 0 mm | - | - | - |
| 1777564736 | 21.67° C | 36% | 1030.4 hPa | 0 mm | - | - | - |
| 1777561158 | 21.67° C | 37% | 1030.9 hPa | 0 mm | - | - | - |
| 1777558758 | 20.56° C | 37% | 1031.3 hPa | 0 mm | - | - | - |
| 1777557557 | 20.56° C | 37% | 1031.4 hPa | 0 mm | - | - | - |
| 1777554557 | 19.44° C | 37% | 1031.7 hPa | 0 mm | - | - | - |
| 1777549757 | 18.33° C | 40% | 1032.5 hPa | 0 mm | - | - | - |
| 1777548577 | 18.33° C | 39% | 1032.8 hPa | 0 mm | - | - | - |
| 1777543157 | 16.11° C | 39% | 1033.6 hPa | 0 mm | - | - | - |
| 1777540757 | 16.11° C | 40% | 1034.1 hPa | 0 mm | - | - | - |
| 1777540157 | 16.11° C | 40% | 1034 hPa | 0 mm | - | - | - |
| 1777538957 | 15° C | 42% | 1034.3 hPa | 0 mm | - | - | - |
| 1777533557 | 11.11° C | 50% | 1034.6 hPa | 0 mm | - | - | - |
| 1777527557 | 6.11° C | 76% | 1034.4 hPa | 0 mm | - | - | - |
| 1777522156 | 3.89° C | 80% | 1034.1 hPa | 0 mm | - | - | - |
| 1777511956 | 5° C | 75% | 1033.4 hPa | 0 mm | - | - | - |
| 1777510176 | 5° C | 74% | 1033.3 hPa | 0 mm | - | - | - |
| 1777508956 | 5.56° C | 74% | 1033.4 hPa | 0 mm | - | - | - |
| 1777507776 | 5.56° C | 74% | 1033.3 hPa | 0 mm | - | - | - |
* Rain latest hour (hover to see other rain measurements)
** Current wind speed in m/s (hover to see current wind gust speed)